Time;durP1;ratioP1;P1;durP2;ratioP2;P2;SDS_P1;SDS_P2;PMS_P1;PMS_P2;Temp;Humidity;BMP_temperature;BMP_pressure;BME280_temperature;BME280_humidity;BME280_pressure;Samples;Min_cycle;Max_cycle;Signal;HPM_P1;HPM_P2
2022/02/11 00:10:51;;;;;;;3.72;1.48;;;8.70;88.00;;;;;;9986346;28;20038;-72
2022/02/11 00:15:43;;;;;;;4.15;1.10;;;8.70;87.60;;;;;;10027195;28;20033;-73
2022/02/11 00:20:34;;;;;;;2.40;1.50;;;8.80;87.30;;;;;;10039624;28;20049;-75
2022/02/11 00:25:25;;;;;;;1.77;1.00;;;8.80;87.00;;;;;;10039024;28;20160;-73
2022/02/11 00:31:02;;;;;;;1.90;1.10;;;8.80;86.80;;;;;;10036638;28;20907;-73
2022/02/11 00:35:48;;;;;;;2.83;1.23;;;8.80;86.40;;;;;;10035978;28;20053;-71
2022/02/11 00:41:35;;;;;;;1.42;1.08;;;8.80;86.50;;;;;;10045795;28;20108;-74
2022/02/11 00:46:49;;;;;;;2.67;1.15;;;8.90;86.30;;;;;;10032439;28;20066;-73
2022/02/11 01:06:44;;;;;;;3.05;0.98;;;8.70;86.00;;;;;;10023494;28;20627;-73
2022/02/11 01:11:41;;;;;;;1.60;0.90;;;8.60;86.00;;;;;;10041299;28;20279;-73
2022/02/11 01:16:42;;;;;;;1.65;1.02;;;8.60;86.00;;;;;;10047502;28;20038;-73
2022/02/11 01:21:42;;;;;;;1.95;0.80;;;8.70;86.00;;;;;;10035822;28;20022;-73
2022/02/11 01:51:56;;;;;;;1.98;1.27;;;8.30;86.90;;;;;;10032389;28;20064;-74
2022/02/11 01:57:03;;;;;;;2.58;1.77;;;9.00;87.60;;;;;;10039849;28;20068;-74
2022/02/11 02:17:47;;;;;;;3.25;1.42;;;7.80;88.90;;;;;;10033181;28;20041;-73
2022/02/11 02:37:53;;;;;;;2.22;1.35;;;7.30;90.70;;;;;;10034247;28;20105;-72
2022/02/11 02:58:15;;;;;;;1.35;0.80;;;6.80;91.50;;;;;;10036986;28;20492;-72
2022/02/11 03:49:46;;;;;;;0.68;0.63;;;6.20;91.90;;;;;;10025747;28;20080;-73
2022/02/11 04:56:02;;;;;;;2.78;1.63;;;5.70;92.20;;;;;;10030526;28;20096;-73
2022/02/11 05:00:53;;;;;;;3.03;2.20;;;5.70;92.00;;;;;;10029945;28;20057;-74
2022/02/11 05:05:50;;;;;;;3.13;1.45;;;5.60;92.00;;;;;;10024785;28;20431;-72
2022/02/11 05:10:40;;;;;;;2.42;1.60;;;5.50;92.00;;;;;;10022666;28;20033;-73
2022/02/11 05:15:31;;;;;;;2.53;1.27;;;5.50;92.00;;;;;;10023024;28;20037;-74
2022/02/11 05:20:22;;;;;;;2.13;1.27;;;5.40;91.90;;;;;;10026002;28;20038;-73
2022/02/11 05:25:13;;;;;;;2.03;1.42;;;5.40;91.70;;;;;;10023335;28;20034;-73
2022/02/11 05:30:05;;;;;;;5.22;1.60;;;5.40;91.60;;;;;;10021466;28;20029;-74
2022/02/11 05:34:55;;;;;;;2.92;1.30;;;5.40;91.50;;;;;;10028983;28;20045;-73
2022/02/11 05:39:46;;;;;;;4.47;1.67;;;5.40;91.50;;;;;;10031425;28;20116;-74
2022/02/11 05:44:37;;;;;;;2.65;1.80;;;5.30;91.40;;;;;;10023110;28;20032;-73
2022/02/11 05:49:27;;;;;;;4.25;2.20;;;5.20;91.30;;;;;;10037817;28;20101;-72
2022/02/11 05:54:18;;;;;;;3.55;1.65;;;5.20;91.30;;;;;;10027838;28;20029;-72
2022/02/11 05:59:09;;;;;;;2.70;1.45;;;5.30;91.20;;;;;;10042517;28;20040;-72
2022/02/11 06:03:59;;;;;;;3.15;1.63;;;5.20;91.10;;;;;;10037607;28;20029;-74
2022/02/11 06:08:50;;;;;;;2.72;1.42;;;5.10;91.10;;;;;;10038252;28;20032;-75
2022/02/11 06:13:41;;;;;;;3.60;2.00;;;5.20;91.10;;;;;;10037598;28;20033;-72
2022/02/11 06:18:31;;;;;;;5.47;1.70;;;5.10;91.00;;;;;;10045115;28;20212;-72
2022/02/11 06:23:26;;;;;;;3.60;1.70;;;5.10;91.10;;;;;;10036741;28;20026;-72
2022/02/11 06:28:17;;;;;;;2.55;1.60;;;5.00;91.10;;;;;;10037721;28;20389;-73
2022/02/11 06:33:07;;;;;;;2.33;1.17;;;5.00;91.10;;;;;;10045394;28;20108;-72
2022/02/11 06:37:58;;;;;;;2.63;1.48;;;5.00;91.10;;;;;;10041047;28;20040;-74
2022/02/11 06:42:49;;;;;;;2.55;2.03;;;4.90;91.10;;;;;;10041942;28;20037;-74
2022/02/11 06:47:40;;;;;;;4.20;1.90;;;4.80;91.10;;;;;;10046848;28;20026;-73
2022/02/11 06:52:31;;;;;;;3.78;2.40;;;4.80;91.20;;;;;;10035383;28;20040;-72
2022/02/11 06:57:21;;;;;;;3.95;2.08;;;4.80;91.10;;;;;;10041022;28;20538;-73
2022/02/11 07:02:17;;;;;;;4.10;1.70;;;4.80;91.10;;;;;;10034100;28;20128;-72
2022/02/11 07:07:08;;;;;;;4.53;2.08;;;4.80;91.10;;;;;;10043007;28;20409;-72
2022/02/11 07:11:58;;;;;;;4.43;2.10;;;4.70;91.10;;;;;;10043856;28;20048;-73
2022/02/11 07:16:49;;;;;;;6.20;2.55;;;4.70;91.20;;;;;;10036694;28;20520;-73
2022/02/11 07:21:41;;;;;;;8.65;1.92;;;4.80;91.20;;;;;;10028046;28;20041;-72
2022/02/11 07:26:31;;;;;;;7.30;2.60;;;4.90;91.00;;;;;;10032899;28;20508;-72
2022/02/11 07:31:22;;;;;;;3.97;3.00;;;4.90;91.10;;;;;;10033275;28;20117;-73
2022/02/11 07:36:14;;;;;;;4.93;2.63;;;4.90;91.00;;;;;;10030015;28;20045;-73
2022/02/11 07:41:04;;;;;;;7.22;2.50;;;4.90;91.00;;;;;;10031189;28;20467;-73
2022/02/11 07:45:55;;;;;;;4.03;2.80;;;4.90;91.10;;;;;;10041877;28;20022;-73
2022/02/11 07:50:46;;;;;;;4.70;2.50;;;5.50;91.10;;;;;;10030912;28;20037;-73
2022/02/11 07:55:36;;;;;;;7.57;2.45;;;4.90;91.00;;;;;;10040149;28;20030;-73
2022/02/11 08:00:27;;;;;;;4.93;1.75;;;5.00;91.00;;;;;;10027317;28;20096;-72
2022/02/11 08:05:18;;;;;;;3.78;2.40;;;5.00;90.90;;;;;;10039716;28;20029;-72
2022/02/11 08:10:09;;;;;;;8.07;3.15;;;5.30;91.00;;;;;;10035043;28;20048;-72
2022/02/11 08:15:00;;;;;;;4.70;2.78;;;5.30;90.90;;;;;;10042688;28;20022;-71
2022/02/11 08:19:50;;;;;;;6.35;2.42;;;5.40;91.10;;;;;;10025747;28;20088;-71
2022/02/11 08:24:41;;;;;;;7.85;2.45;;;5.50;91.00;;;;;;10032128;28;20033;-72
2022/02/11 08:29:35;;;;;;;4.43;2.30;;;5.50;90.90;;;;;;10028295;28;20111;-72
2022/02/11 08:34:25;;;;;;;7.35;2.80;;;5.40;91.00;;;;;;10024275;28;20441;-72
2022/02/11 08:39:18;;;;;;;3.72;2.35;;;5.40;90.90;;;;;;10029845;28;20053;-71
2022/02/11 08:44:08;;;;;;;4.60;2.75;;;5.30;90.90;;;;;;10028484;28;20096;-72
2022/02/11 08:48:59;;;;;;;3.65;1.85;;;5.40;90.70;;;;;;10022903;28;20030;-72
2022/02/11 08:53:51;;;;;;;4.35;2.20;;;5.40;90.70;;;;;;10036436;28;20563;-73
2022/02/11 08:58:42;;;;;;;5.97;1.80;;;5.60;90.40;;;;;;10024190;28;20022;-74
2022/02/11 09:03:36;;;;;;;4.72;1.75;;;5.60;90.40;;;;;;10031473;28;20045;-72
2022/02/11 09:08:27;;;;;;;4.70;1.90;;;5.70;90.30;;;;;;10024548;28;20017;-72
2022/02/11 09:13:18;;;;;;;2.75;1.30;;;5.70;90.10;;;;;;10034512;28;20030;-72
2022/02/11 09:18:09;;;;;;;2.85;1.88;;;5.90;90.10;;;;;;10041464;28;20044;-73
2022/02/11 09:22:59;;;;;;;2.13;1.50;;;5.90;90.10;;;;;;10029789;28;20030;-71
2022/02/11 09:27:50;;;;;;;3.17;1.85;;;6.20;89.70;;;;;;10037648;28;20038;-72
2022/02/11 09:32:42;;;;;;;2.30;1.50;;;6.30;89.70;;;;;;10040190;28;20435;-72
2022/02/11 09:37:34;;;;;;;3.20;1.42;;;6.40;89.40;;;;;;10054227;28;20041;-71
2022/02/11 09:42:26;;;;;;;2.22;1.60;;;6.60;89.20;;;;;;10046663;28;20026;-72
2022/02/11 09:47:16;;;;;;;10.73;2.15;;;6.80;88.60;;;;;;10052992;28;20026;-72
2022/02/11 09:52:07;;;;;;;4.97;2.03;;;7.00;88.70;;;;;;10053111;28;20100;-72
2022/02/11 09:56:58;;;;;;;2.78;1.27;;;7.10;88.80;;;;;;10041043;28;20038;-72
2022/02/11 10:01:50;;;;;;;6.75;1.80;;;7.50;88.50;;;;;;10034927;28;20050;-71
2022/02/11 10:06:50;;;;;;;3.55;1.50;;;7.70;88.40;;;;;;10031333;28;20034;-71
2022/02/11 10:11:43;;;;;;;3.35;1.20;;;7.60;88.20;;;;;;10044510;28;20021;-72
2022/02/11 10:16:33;;;;;;;2.92;1.40;;;7.70;88.20;;;;;;10039186;28;20401;-72
2022/02/11 10:21:26;;;;;;;4.45;1.38;;;7.10;88.00;;;;;;10040263;28;20030;-72
2022/02/11 10:26:24;;;;;;;1.80;1.38;;;7.10;88.40;;;;;;10042608;28;20132;-73
2022/02/11 10:31:20;;;;;;;4.63;2.42;;;6.90;88.20;;;;;;10033680;28;20056;-73
2022/02/11 10:36:16;;;;;;;7.75;2.35;;;6.90;88.00;;;;;;10034934;28;20045;-74
2022/02/11 10:41:06;;;;;;;6.17;2.17;;;6.80;88.10;;;;;;10037423;28;20034;-73
2022/02/11 10:46:04;;;;;;;3.97;2.00;;;6.80;88.00;;;;;;10038228;28;20033;-73
2022/02/11 10:51:01;;;;;;;3.85;2.38;;;6.70;88.00;;;;;;10035295;28;20519;-74
2022/02/11 10:55:53;;;;;;;6.15;2.20;;;6.70;87.90;;;;;;10048852;28;20037;-73
2022/02/11 11:00:45;;;;;;;7.57;2.60;;;6.80;87.60;;;;;;10032617;28;20088;-73
2022/02/11 11:05:44;;;;;;;5.85;2.30;;;6.90;87.60;;;;;;10043893;28;20026;-73
2022/02/11 11:10:37;;;;;;;4.70;1.80;;;7.00;87.50;;;;;;10033646;28;20030;-73
2022/02/11 11:15:29;;;;;;;3.63;2.03;;;7.00;87.90;;;;;;10034802;28;20091;-72
2022/02/11 11:20:22;;;;;;;2.95;1.85;;;7.20;87.40;;;;;;10038718;28;20041;-73
2022/02/11 11:25:12;;;;;;;4.90;2.15;;;7.20;87.60;;;;;;10038521;28;20391;-73
2022/02/11 11:30:44;;;;;;;6.32;2.28;;;7.40;87.10;;;;;;10035196;28;20029;-73
2022/02/11 11:35:42;;;;;;;3.88;2.13;;;7.40;86.90;;;;;;10027645;28;20034;-74
2022/02/11 11:40:33;;;;;;;2.97;1.80;;;7.70;86.70;;;;;;10031853;28;20072;-74
2022/02/11 11:45:28;;;;;;;4.88;2.15;;;7.90;86.40;;;;;;10035048;28;20026;-73
2022/02/11 11:50:27;;;;;;;2.70;1.88;;;8.20;86.60;;;;;;10027690;28;20484;-73
2022/02/11 11:55:20;;;;;;;4.43;2.15;;;8.20;86.30;;;;;;10031292;28;20025;-73
2022/02/11 12:00:12;;;;;;;5.05;2.10;;;7.90;86.20;;;;;;10032744;28;20053;-74
2022/02/11 12:05:06;;;;;;;5.70;2.03;;;7.80;86.50;;;;;;10052406;28;20053;-74
2022/02/11 12:09:58;;;;;;;3.05;1.50;;;7.60;86.20;;;;;;10026004;28;20029;-74
2022/02/11 12:14:52;;;;;;;3.92;1.33;;;7.40;85.70;;;;;;10030740;28;20101;-73
2022/02/11 12:19:45;;;;;;;4.13;2.25;;;7.40;85.50;;;;;;10039380;28;20038;-74
2022/02/11 12:30:07;;;;;;;3.78;1.60;;;7.40;84.90;;;;;;10031578;28;20472;-72
2022/02/11 12:35:03;;;;;;;3.67;1.38;;;7.50;84.30;;;;;;10035560;28;20067;-74
2022/02/11 12:40:10;;;;;;;1.90;1.40;;;7.60;83.90;;;;;;10032892;28;20230;-74
2022/02/11 12:45:02;;;;;;;4.35;2.22;;;7.60;82.70;;;;;;10030059;28;20026;-73
2022/02/11 12:49:53;;;;;;;3.63;2.20;;;7.80;83.20;;;;;;10042485;28;20021;-74
2022/02/11 12:55:01;;;;;;;1.80;1.10;;;7.90;82.90;;;;;;10034061;28;20186;-73
2022/02/11 12:59:53;;;;;;;3.17;1.30;;;7.90;82.90;;;;;;10026792;28;20049;-73
2022/02/11 13:04:43;;;;;;;3.33;1.45;;;7.70;83.00;;;;;;10044256;28;20060;-73
2022/02/11 13:09:34;;;;;;;1.98;1.30;;;7.70;82.90;;;;;;10042142;28;20029;-73
2022/02/11 13:14:26;;;;;;;4.47;1.95;;;7.60;82.80;;;;;;10057075;28;20029;-74
2022/02/11 13:19:18;;;;;;;1.60;1.10;;;7.70;82.40;;;;;;10044743;28;20048;-74
2022/02/11 13:24:09;;;;;;;4.53;1.17;;;7.70;82.40;;;;;;10043867;28;20411;-74
2022/02/11 13:29:00;;;;;;;5.07;1.98;;;7.80;82.10;;;;;;10036859;28;20041;-74
2022/02/11 13:34:11;;;;;;;3.80;1.65;;;8.00;81.30;;;;;;10046413;28;20026;-73
2022/02/11 13:39:02;;;;;;;8.15;2.00;;;8.00;81.30;;;;;;10060111;28;20038;-75
2022/02/11 13:43:54;;;;;;;3.00;2.05;;;8.00;81.30;;;;;;10043810;28;20128;-73
2022/02/11 13:48:54;;;;;;;4.55;1.67;;;8.20;81.20;;;;;;10030743;28;20074;-73
2022/02/11 13:53:53;;;;;;;3.97;1.65;;;8.20;81.10;;;;;;10046693;28;20599;-73
2022/02/11 13:59:13;;;;;;;2.15;1.05;;;8.10;81.00;;;;;;10034882;28;20302;-73
2022/02/11 14:04:06;;;;;;;4.03;1.35;;;8.20;80.10;;;;;;10045747;28;20149;-73
2022/02/11 14:08:58;;;;;;;1.67;1.13;;;8.30;80.60;;;;;;10036465;28;20025;-74
2022/02/11 14:13:49;;;;;;;5.32;1.42;;;8.60;79.50;;;;;;10045547;28;20416;-75
2022/02/11 14:18:42;;;;;;;4.20;1.27;;;8.60;79.50;;;;;;10048166;28;20415;-74
2022/02/11 14:23:32;;;;;;;1.50;1.20;;;8.50;79.90;;;;;;10035578;28;20476;-73
2022/02/11 14:28:26;;;;;;;1.70;1.17;;;8.40;80.10;;;;;;10037363;28;20056;-73
2022/02/11 14:33:17;;;;;;;1.33;1.02;;;8.60;79.10;;;;;;10045254;28;20026;-72
2022/02/11 14:38:08;;;;;;;4.03;1.42;;;8.70;78.60;;;;;;10034484;28;20399;-72
2022/02/11 14:43:02;;;;;;;3.90;1.52;;;9.00;78.20;;;;;;10040447;28;20030;-71
2022/02/11 14:47:52;;;;;;;5.13;2.22;;;9.00;77.90;;;;;;10036630;28;20018;-71
2022/02/11 14:52:43;;;;;;;2.35;1.70;;;8.70;79.10;;;;;;10042348;28;20029;-71
2022/02/11 14:57:34;;;;;;;3.78;1.42;;;8.10;78.70;;;;;;10039027;28;20061;-71
2022/02/11 15:02:24;;;;;;;5.15;1.48;;;8.00;78.80;;;;;;10041979;28;20056;-72
2022/02/11 15:07:15;;;;;;;3.05;1.40;;;8.00;78.40;;;;;;10030622;28;20543;-72
2022/02/11 15:12:09;;;;;;;5.28;1.88;;;8.00;78.10;;;;;;10039223;28;20029;-71
2022/02/11 15:17:00;;;;;;;3.47;1.20;;;8.00;78.20;;;;;;10029780;28;20285;-73
2022/02/11 15:21:51;;;;;;;3.88;1.42;;;8.10;78.10;;;;;;10035362;28;20383;-71
2022/02/11 15:26:41;;;;;;;2.25;1.05;;;8.10;78.00;;;;;;10030507;28;20017;-73
2022/02/11 15:31:32;;;;;;;2.70;1.00;;;8.10;77.90;;;;;;10030304;28;20506;-72
2022/02/11 15:36:23;;;;;;;3.05;1.52;;;8.20;77.80;;;;;;10038662;28;20109;-72
2022/02/11 15:41:14;;;;;;;2.47;1.25;;;8.00;78.00;;;;;;10034364;28;20607;-72
2022/02/11 15:46:06;;;;;;;2.85;1.60;;;8.10;78.10;;;;;;10033444;28;20125;-73
2022/02/11 15:50:58;;;;;;;3.63;1.38;;;7.90;77.80;;;;;;10038450;28;20033;-74
2022/02/11 15:55:49;;;;;;;2.17;1.20;;;7.90;77.90;;;;;;10026420;28;20041;-76
2022/02/11 16:00:40;;;;;;;8.07;1.52;;;7.90;77.70;;;;;;10034099;28;20050;-73
2022/02/11 16:05:30;;;;;;;1.75;1.13;;;7.90;77.60;;;;;;10023195;28;21558;-74
2022/02/11 16:10:23;;;;;;;3.42;1.60;;;7.90;77.60;;;;;;10041513;28;20029;-75
2022/02/11 16:15:15;;;;;;;5.10;1.45;;;7.80;77.60;;;;;;10034649;28;20034;-72
2022/02/11 16:20:07;;;;;;;2.45;1.02;;;7.60;77.60;;;;;;10043764;28;20132;-75
2022/02/11 16:24:58;;;;;;;2.53;1.23;;;7.60;77.80;;;;;;10046560;28;20096;-75
2022/02/11 16:29:49;;;;;;;1.63;1.10;;;7.40;77.80;;;;;;10041361;28;20064;-75
2022/02/11 16:34:39;;;;;;;4.45;1.35;;;7.30;77.90;;;;;;10049697;28;20112;-75
2022/02/11 16:39:30;;;;;;;2.22;1.27;;;7.20;78.00;;;;;;10050827;28;20045;-76
2022/02/11 16:44:22;;;;;;;2.63;1.20;;;7.20;77.90;;;;;;10044798;28;20064;-72
2022/02/11 16:49:18;;;;;;;4.90;1.42;;;7.20;78.00;;;;;;10032695;28;20377;-71
2022/02/11 16:54:09;;;;;;;1.20;1.00;;;7.10;78.10;;;;;;10029601;28;20025;-72
2022/02/11 16:58:59;;;;;;;3.25;1.48;;;7.00;78.20;;;;;;10039074;28;20054;-72
2022/02/11 17:03:51;;;;;;;4.53;1.65;;;6.90;78.30;;;;;;10028629;28;20045;-70
2022/02/11 17:08:44;;;;;;;2.70;1.48;;;6.90;78.40;;;;;;10026214;28;20053;-72
2022/02/11 17:13:34;;;;;;;5.40;1.70;;;6.90;78.60;;;;;;10038428;28;20452;-71
2022/02/11 17:18:25;;;;;;;6.47;1.38;;;6.80;78.60;;;;;;10036615;28;20044;-72
2022/02/11 17:23:17;;;;;;;6.82;1.88;;;6.80;79.10;;;;;;10036952;28;20025;-72
2022/02/11 17:28:09;;;;;;;6.22;2.20;;;6.80;78.90;;;;;;10027622;28;20056;-75
2022/02/11 17:33:00;;;;;;;3.53;1.50;;;6.70;78.90;;;;;;10022377;28;20030;-73
2022/02/11 17:37:51;;;;;;;3.10;1.52;;;6.50;78.80;;;;;;10023359;28;20053;-73
2022/02/11 17:42:41;;;;;;;3.88;1.25;;;6.80;78.90;;;;;;10026979;28;20124;-73
2022/02/11 17:47:32;;;;;;;4.93;1.38;;;6.80;79.00;;;;;;10035454;28;20079;-72
2022/02/11 17:52:23;;;;;;;5.47;1.75;;;6.80;79.10;;;;;;10032547;28;20030;-72
2022/02/11 17:57:13;;;;;;;4.22;1.75;;;6.80;79.10;;;;;;10034277;28;20115;-72
2022/02/11 18:02:04;;;;;;;2.63;1.90;;;6.80;79.30;;;;;;10045447;28;20453;-74
2022/02/11 18:06:55;;;;;;;2.28;1.85;;;6.70;79.30;;;;;;10039362;28;20022;-74
2022/02/11 18:11:45;;;;;;;2.08;1.67;;;6.60;79.50;;;;;;10032808;28;20045;-74
2022/02/11 18:16:42;;;;;;;4.75;1.88;;;6.50;79.60;;;;;;10044858;28;20184;-74
2022/02/11 18:21:34;;;;;;;2.75;2.05;;;6.50;79.70;;;;;;10047717;28;20038;-74
2022/02/11 18:26:25;;;;;;;6.28;2.40;;;6.40;79.80;;;;;;10036603;28;20297;-74
2022/02/11 18:31:16;;;;;;;10.02;2.92;;;6.30;79.90;;;;;;10035852;28;20575;-72
2022/02/11 18:36:06;;;;;;;6.00;1.90;;;6.30;80.20;;;;;;10041728;28;20488;-73
2022/02/11 18:40:57;;;;;;;2.42;1.90;;;6.20;80.30;;;;;;10043390;28;20436;-74
2022/02/11 18:45:49;;;;;;;5.20;2.83;;;6.20;80.40;;;;;;10040789;28;20040;-74
2022/02/11 18:50:40;;;;;;;5.45;2.08;;;6.10;80.40;;;;;;10032440;28;20018;-73
2022/02/11 18:55:31;;;;;;;24.75;11.63;;;6.00;80.50;;;;;;10052195;28;20025;-73
2022/02/11 19:00:25;;;;;;;8.20;3.47;;;6.00;80.50;;;;;;10040517;28;20057;-73
2022/02/11 19:05:16;;;;;;;5.00;3.00;;;6.00;80.60;;;;;;10032734;28;20037;-71
2022/02/11 19:10:07;;;;;;;6.22;2.83;;;5.90;80.70;;;;;;10040795;28;20026;-72
2022/02/11 19:15:04;;;;;;;5.70;2.75;;;5.90;80.80;;;;;;10042762;28;20072;-72
2022/02/11 19:19:56;;;;;;;6.85;2.97;;;4.60;80.40;;;;;;10042633;28;20056;-71
2022/02/11 19:24:51;;;;;;;20.23;7.47;;;5.80;80.90;;;;;;10027076;28;20415;-71
2022/02/11 19:29:43;;;;;;;7.07;4.23;;;5.90;81.20;;;;;;10045416;28;20128;-73
2022/02/11 19:34:35;;;;;;;6.18;3.58;;;5.90;80.80;;;;;;10030265;28;20549;-74
2022/02/11 19:39:26;;;;;;;8.10;3.78;;;5.80;81.00;;;;;;10037777;28;20285;-74
2022/02/11 19:44:17;;;;;;;6.50;3.67;;;5.80;81.20;;;;;;10046689;28;20073;-72
2022/02/11 19:49:07;;;;;;;6.75;3.33;;;6.10;81.40;;;;;;10042007;28;20092;-74
2022/02/11 19:54:01;;;;;;;7.30;3.42;;;5.70;81.50;;;;;;10037698;28;20033;-73
2022/02/11 19:58:52;;;;;;;7.43;3.30;;;5.70;81.70;;;;;;10044951;28;20056;-73
2022/02/11 20:03:45;;;;;;;7.70;3.75;;;5.60;81.50;;;;;;10038807;28;20100;-72
2022/02/11 20:08:36;;;;;;;8.07;4.10;;;5.70;81.60;;;;;;10030447;28;20057;-72
2022/02/11 20:13:33;;;;;;;9.40;4.30;;;5.60;81.90;;;;;;10030367;28;20060;-71
2022/02/11 20:18:24;;;;;;;8.13;3.88;;;5.60;82.00;;;;;;10046789;28;20044;-72
2022/02/11 20:23:15;;;;;;;7.10;3.28;;;5.50;82.10;;;;;;10027923;28;20377;-73
2022/02/11 20:28:07;;;;;;;8.70;4.15;;;5.50;82.20;;;;;;10037406;28;20034;-74
2022/02/11 20:33:06;;;;;;;7.22;3.80;;;5.40;82.30;;;;;;10041000;28;20026;-72
2022/02/11 20:37:57;;;;;;;5.07;3.00;;;5.30;82.50;;;;;;10032612;28;20040;-73
2022/02/11 20:42:48;;;;;;;9.73;3.72;;;5.40;82.50;;;;;;10038386;28;20108;-73
2022/02/11 20:47:39;;;;;;;6.97;3.25;;;5.30;82.40;;;;;;10056774;28;20116;-73
2022/02/11 20:52:32;;;;;;;7.45;3.20;;;5.20;82.60;;;;;;10038409;28;20030;-73
2022/02/11 20:57:22;;;;;;;9.88;3.80;;;5.30;82.60;;;;;;10024515;28;20087;-73
2022/02/11 21:02:13;;;;;;;8.60;3.70;;;5.20;82.60;;;;;;10027347;28;20053;-74
2022/02/11 21:07:12;;;;;;;9.27;4.80;;;5.20;82.90;;;;;;10022977;28;20236;-72
2022/02/11 21:12:05;;;;;;;6.07;3.08;;;5.10;82.90;;;;;;10024891;28;20026;-73
2022/02/11 21:16:56;;;;;;;9.85;3.67;;;5.00;82.80;;;;;;10039877;28;20127;-73
2022/02/11 21:21:51;;;;;;;5.15;3.17;;;5.00;83.20;;;;;;10030668;28;20214;-73
2022/02/11 21:26:42;;;;;;;11.00;3.60;;;5.00;82.90;;;;;;10028512;28;20262;-73
2022/02/11 21:31:41;;;;;;;10.63;3.90;;;5.00;83.00;;;;;;10029775;28;20488;-72
2022/02/11 21:36:32;;;;;;;2.97;2.40;;;4.90;83.20;;;;;;10037428;28;20509;-74
2022/02/11 21:41:23;;;;;;;7.05;3.28;;;4.90;83.10;;;;;;10036049;28;20041;-74
2022/02/11 21:46:14;;;;;;;4.82;3.42;;;4.90;83.20;;;;;;10037815;28;20484;-74
2022/02/11 21:51:05;;;;;;;4.25;3.05;;;4.80;83.00;;;;;;10040854;28;20033;-73
2022/02/11 21:55:56;;;;;;;5.50;3.28;;;4.80;83.10;;;;;;10032879;28;20049;-73
2022/02/11 22:00:47;;;;;;;7.63;2.85;;;4.80;83.30;;;;;;10038132;28;20053;-74
2022/02/11 22:05:38;;;;;;;7.88;3.33;;;4.80;83.20;;;;;;10037030;28;20113;-74
2022/02/11 22:10:28;;;;;;;7.50;3.35;;;4.80;83.40;;;;;;10034316;28;20026;-73
2022/02/11 22:15:19;;;;;;;7.78;3.22;;;4.80;83.30;;;;;;10038164;28;20042;-73
2022/02/11 22:20:10;;;;;;;5.38;2.97;;;4.80;83.40;;;;;;10035118;28;20037;-74
2022/02/11 22:25:07;;;;;;;4.25;3.33;;;4.80;83.80;;;;;;10039539;28;20084;-74
2022/02/11 22:29:58;;;;;;;8.27;4.53;;;4.90;83.70;;;;;;10032341;28;20044;-73
2022/02/11 22:34:49;;;;;;;8.90;4.22;;;4.90;83.70;;;;;;10043389;28;20183;-75
2022/02/11 22:39:40;;;;;;;7.65;3.88;;;5.00;83.70;;;;;;10040908;28;20121;-73
2022/02/11 22:44:30;;;;;;;6.90;3.58;;;4.90;83.80;;;;;;10039344;28;20052;-72
2022/02/11 22:54:30;;;;;;;11.63;4.25;;;4.90;83.80;;;;;;10047643;28;20045;-73
2022/02/11 22:59:22;;;;;;;5.78;3.95;;;4.70;84.10;;;;;;10044030;28;20561;-72
2022/02/11 23:04:12;;;;;;;8.70;4.40;;;4.70;84.10;;;;;;10034580;28;20265;-74
2022/02/11 23:09:23;;;;;;;5.45;3.90;;;4.60;84.10;;;;;;10038213;28;20113;-72
2022/02/11 23:14:15;;;;;;;7.43;3.92;;;4.50;84.20;;;;;;10048759;28;20423;-73
2022/02/11 23:19:06;;;;;;;8.85;3.70;;;4.50;84.20;;;;;;10032794;28;20568;-72
2022/02/11 23:23:57;;;;;;;6.65;4.50;;;4.50;84.20;;;;;;10044442;28;20081;-72
2022/02/11 23:28:48;;;;;;;6.70;4.18;;;4.40;84.90;;;;;;10033341;28;20017;-72
2022/02/11 23:33:39;;;;;;;7.70;4.60;;;4.30;84.50;;;;;;10040648;28;20013;-72
2022/02/11 23:38:30;;;;;;;5.45;3.35;;;4.30;84.50;;;;;;10034277;28;20044;-72
2022/02/11 23:43:21;;;;;;;6.28;3.67;;;4.20;84.70;;;;;;10034783;28;20041;-73
2022/02/11 23:48:12;;;;;;;8.75;3.92;;;4.20;84.90;;;;;;10033400;28;20510;-72
2022/02/11 23:53:03;;;;;;;7.78;3.38;;;4.10;84.70;;;;;;10042075;28;20017;-72
2022/02/11 23:57:54;;;;;;;9.07;3.85;;;4.10;85.00;;;;;;10033905;28;20510;-72
